sensor_id;sensor_type;location;lat;lon;timestamp;temperature;humidity
31133;DHT22;17779;50.942;4.026;2022-09-19T00:00:35;11.70;99.90
31133;DHT22;17779;50.942;4.026;2022-09-19T00:03:01;11.50;99.90
31133;DHT22;17779;50.942;4.026;2022-09-19T00:05:28;11.60;99.90
31133;DHT22;17779;50.942;4.026;2022-09-19T00:07:53;11.60;99.90
31133;DHT22;17779;50.942;4.026;2022-09-19T00:10:19;11.60;99.90
31133;DHT22;17779;50.942;4.026;2022-09-19T00:12:44;11.70;99.90
31133;DHT22;17779;50.942;4.026;2022-09-19T00:15:10;11.80;99.90
31133;DHT22;17779;50.942;4.026;2022-09-19T00:17:36;11.70;99.90
31133;DHT22;17779;50.942;4.026;2022-09-19T00:20:01;11.60;99.90
31133;DHT22;17779;50.942;4.026;2022-09-19T00:22:28;11.40;99.90
31133;DHT22;17779;50.942;4.026;2022-09-19T00:24:54;11.30;99.90
31133;DHT22;17779;50.942;4.026;2022-09-19T00:27:21;11.30;99.90
31133;DHT22;17779;50.942;4.026;2022-09-19T00:29:47;11.40;99.90
31133;DHT22;17779;50.942;4.026;2022-09-19T00:32:13;11.50;99.90
31133;DHT22;17779;50.942;4.026;2022-09-19T00:34:46;11.60;99.90
31133;DHT22;17779;50.942;4.026;2022-09-19T00:37:13;11.70;99.90
31133;DHT22;17779;50.942;4.026;2022-09-19T00:39:39;11.70;99.90
31133;DHT22;17779;50.942;4.026;2022-09-19T00:42:08;11.60;99.90
31133;DHT22;17779;50.942;4.026;2022-09-19T00:47:04;11.60;99.90
31133;DHT22;17779;50.942;4.026;2022-09-19T00:49:32;11.60;99.90
31133;DHT22;17779;50.942;4.026;2022-09-19T00:51:59;11.50;99.90
31133;DHT22;17779;50.942;4.026;2022-09-19T00:54:32;11.40;99.90
31133;DHT22;17779;50.942;4.026;2022-09-19T00:56:58;11.10;99.90
31133;DHT22;17779;50.942;4.026;2022-09-19T00:59:25;10.90;99.90
31133;DHT22;17779;50.942;4.026;2022-09-19T01:01:55;10.90;99.90
31133;DHT22;17779;50.942;4.026;2022-09-19T01:04:22;10.80;99.90
31133;DHT22;17779;50.942;4.026;2022-09-19T01:12:07;11.40;99.90
31133;DHT22;17779;50.942;4.026;2022-09-19T01:17:07;11.40;99.90
31133;DHT22;17779;50.942;4.026;2022-09-19T01:24:35;11.10;99.90
31133;DHT22;17779;50.942;4.026;2022-09-19T01:29:39;11.10;99.90
31133;DHT22;17779;50.942;4.026;2022-09-19T01:32:07;10.90;99.90
31133;DHT22;17779;50.942;4.026;2022-09-19T01:34:41;10.80;99.90
31133;DHT22;17779;50.942;4.026;2022-09-19T01:37:12;10.90;99.90
31133;DHT22;17779;50.942;4.026;2022-09-19T01:39:42;10.90;99.90
31133;DHT22;17779;50.942;4.026;2022-09-19T01:42:17;11.00;99.90
31133;DHT22;17779;50.942;4.026;2022-09-19T01:44:43;11.10;99.90
31133;DHT22;17779;50.942;4.026;2022-09-19T01:49:51;10.90;99.90
31133;DHT22;17779;50.942;4.026;2022-09-19T01:52:29;10.80;99.90
31133;DHT22;17779;50.942;4.026;2022-09-19T01:57:31;11.00;99.90
31133;DHT22;17779;50.942;4.026;2022-09-19T02:05:10;10.90;99.90
31133;DHT22;17779;50.942;4.026;2022-09-19T02:10:21;11.20;99.90
31133;DHT22;17779;50.942;4.026;2022-09-19T02:12:49;11.20;99.90
31133;DHT22;17779;50.942;4.026;2022-09-19T02:15:17;11.00;99.90
31133;DHT22;17779;50.942;4.026;2022-09-19T02:17:47;10.90;99.90
31133;DHT22;17779;50.942;4.026;2022-09-19T02:20:17;10.80;99.90
31133;DHT22;17779;50.942;4.026;2022-09-19T02:22:48;10.60;99.90
31133;DHT22;17779;50.942;4.026;2022-09-19T02:25:20;10.50;99.90
31133;DHT22;17779;50.942;4.026;2022-09-19T02:27:51;10.50;99.90
31133;DHT22;17779;50.942;4.026;2022-09-19T02:30:19;10.60;99.90
31133;DHT22;17779;50.942;4.026;2022-09-19T02:32:46;10.80;99.90
31133;DHT22;17779;50.942;4.026;2022-09-19T02:35:14;10.90;99.90
31133;DHT22;17779;50.942;4.026;2022-09-19T02:37:45;10.80;99.90
31133;DHT22;17779;50.942;4.026;2022-09-19T02:40:30;10.60;99.90
31133;DHT22;17779;50.942;4.026;2022-09-19T02:45:45;10.50;99.90
31133;DHT22;17779;50.942;4.026;2022-09-19T02:50:43;10.70;99.90
31133;DHT22;17779;50.942;4.026;2022-09-19T02:53:15;10.70;99.90
31133;DHT22;17779;50.942;4.026;2022-09-19T02:55:43;10.80;99.90
31133;DHT22;17779;50.942;4.026;2022-09-19T02:58:12;10.70;99.90
31133;DHT22;17779;50.942;4.026;2022-09-19T03:00:39;10.50;99.90
31133;DHT22;17779;50.942;4.026;2022-09-19T03:03:11;10.40;99.90
31133;DHT22;17779;50.942;4.026;2022-09-19T03:05:57;10.30;99.90
31133;DHT22;17779;50.942;4.026;2022-09-19T03:08:23;10.20;99.90
31133;DHT22;17779;50.942;4.026;2022-09-19T03:10:49;10.30;99.90
31133;DHT22;17779;50.942;4.026;2022-09-19T03:13:18;10.30;99.90
31133;DHT22;17779;50.942;4.026;2022-09-19T03:15:57;10.40;99.90
31133;DHT22;17779;50.942;4.026;2022-09-19T03:18:25;10.50;99.90
31133;DHT22;17779;50.942;4.026;2022-09-19T03:20:55;10.70;99.90
31133;DHT22;17779;50.942;4.026;2022-09-19T03:23:25;10.60;99.90
31133;DHT22;17779;50.942;4.026;2022-09-19T03:25:52;10.70;99.90
31133;DHT22;17779;50.942;4.026;2022-09-19T03:28:18;10.70;99.90
31133;DHT22;17779;50.942;4.026;2022-09-19T03:30:46;10.70;99.90
31133;DHT22;17779;50.942;4.026;2022-09-19T03:33:11;10.70;99.90
31133;DHT22;17779;50.942;4.026;2022-09-19T03:35:40;10.80;99.90
31133;DHT22;17779;50.942;4.026;2022-09-19T03:38:06;10.80;99.90
31133;DHT22;17779;50.942;4.026;2022-09-19T03:40:32;10.70;99.90
31133;DHT22;17779;50.942;4.026;2022-09-19T03:42:59;10.70;99.90
31133;DHT22;17779;50.942;4.026;2022-09-19T03:45:24;10.80;99.90
31133;DHT22;17779;50.942;4.026;2022-09-19T03:47:50;10.70;99.90
31133;DHT22;17779;50.942;4.026;2022-09-19T03:50:16;10.70;99.90
31133;DHT22;17779;50.942;4.026;2022-09-19T03:52:42;10.70;99.90
31133;DHT22;17779;50.942;4.026;2022-09-19T03:55:13;10.80;99.90
31133;DHT22;17779;50.942;4.026;2022-09-19T03:57:38;10.80;99.90
31133;DHT22;17779;50.942;4.026;2022-09-19T04:00:04;10.90;99.90
31133;DHT22;17779;50.942;4.026;2022-09-19T04:02:30;10.80;99.90
31133;DHT22;17779;50.942;4.026;2022-09-19T04:04:56;10.70;99.90
31133;DHT22;17779;50.942;4.026;2022-09-19T04:07:21;10.70;99.90
31133;DHT22;17779;50.942;4.026;2022-09-19T04:09:47;10.80;99.90
31133;DHT22;17779;50.942;4.026;2022-09-19T04:12:12;10.80;99.90
31133;DHT22;17779;50.942;4.026;2022-09-19T04:14:38;10.90;99.90
31133;DHT22;17779;50.942;4.026;2022-09-19T04:17:04;11.00;99.90
31133;DHT22;17779;50.942;4.026;2022-09-19T04:19:33;11.10;99.90
31133;DHT22;17779;50.942;4.026;2022-09-19T04:22:00;11.00;99.90
31133;DHT22;17779;50.942;4.026;2022-09-19T04:24:26;10.80;99.90
31133;DHT22;17779;50.942;4.026;2022-09-19T04:26:54;10.60;99.90
31133;DHT22;17779;50.942;4.026;2022-09-19T04:29:20;10.40;99.90
31133;DHT22;17779;50.942;4.026;2022-09-19T04:31:46;10.40;99.90
31133;DHT22;17779;50.942;4.026;2022-09-19T04:34:12;10.40;99.90
31133;DHT22;17779;50.942;4.026;2022-09-19T04:36:43;10.50;99.90
31133;DHT22;17779;50.942;4.026;2022-09-19T04:39:09;10.60;99.90
31133;DHT22;17779;50.942;4.026;2022-09-19T04:41:36;10.70;99.90
31133;DHT22;17779;50.942;4.026;2022-09-19T04:44:02;10.80;99.90
31133;DHT22;17779;50.942;4.026;2022-09-19T04:46:29;11.00;99.90
31133;DHT22;17779;50.942;4.026;2022-09-19T04:48:55;11.10;99.90
31133;DHT22;17779;50.942;4.026;2022-09-19T04:51:22;11.30;99.90
31133;DHT22;17779;50.942;4.026;2022-09-19T04:53:48;11.30;99.90
31133;DHT22;17779;50.942;4.026;2022-09-19T04:56:13;11.40;99.90
31133;DHT22;17779;50.942;4.026;2022-09-19T04:58:39;11.40;99.90
31133;DHT22;17779;50.942;4.026;2022-09-19T05:01:06;11.40;99.90
31133;DHT22;17779;50.942;4.026;2022-09-19T05:03:31;11.40;99.90
31133;DHT22;17779;50.942;4.026;2022-09-19T05:05:57;11.50;99.90
31133;DHT22;17779;50.942;4.026;2022-09-19T05:08:25;11.50;99.90
31133;DHT22;17779;50.942;4.026;2022-09-19T05:10:52;11.50;99.90
31133;DHT22;17779;50.942;4.026;2022-09-19T05:13:21;11.60;99.90
31133;DHT22;17779;50.942;4.026;2022-09-19T05:15:48;11.70;99.90
31133;DHT22;17779;50.942;4.026;2022-09-19T05:18:15;11.60;99.90
31133;DHT22;17779;50.942;4.026;2022-09-19T05:20:42;11.70;99.90
31133;DHT22;17779;50.942;4.026;2022-09-19T05:23:08;11.70;99.90
31133;DHT22;17779;50.942;4.026;2022-09-19T05:25:37;11.70;99.90
31133;DHT22;17779;50.942;4.026;2022-09-19T05:28:03;11.50;99.90
31133;DHT22;17779;50.942;4.026;2022-09-19T05:30:39;11.30;99.90
31133;DHT22;17779;50.942;4.026;2022-09-19T05:33:10;11.20;99.90
31133;DHT22;17779;50.942;4.026;2022-09-19T05:35:37;11.20;99.90
31133;DHT22;17779;50.942;4.026;2022-09-19T05:38:03;11.50;99.90
31133;DHT22;17779;50.942;4.026;2022-09-19T05:40:29;11.70;99.90
31133;DHT22;17779;50.942;4.026;2022-09-19T05:42:55;11.90;99.90
31133;DHT22;17779;50.942;4.026;2022-09-19T05:45:25;11.90;99.90
31133;DHT22;17779;50.942;4.026;2022-09-19T05:47:50;11.90;99.90
31133;DHT22;17779;50.942;4.026;2022-09-19T05:50:16;12.10;99.90
31133;DHT22;17779;50.942;4.026;2022-09-19T05:52:42;12.20;99.90
31133;DHT22;17779;50.942;4.026;2022-09-19T05:55:27;12.10;99.90
31133;DHT22;17779;50.942;4.026;2022-09-19T05:57:54;12.30;99.90
31133;DHT22;17779;50.942;4.026;2022-09-19T06:00:21;12.30;99.90
31133;DHT22;17779;50.942;4.026;2022-09-19T06:03:00;12.30;99.90
31133;DHT22;17779;50.942;4.026;2022-09-19T06:05:28;12.30;99.90
31133;DHT22;17779;50.942;4.026;2022-09-19T06:07:55;12.50;99.90
31133;DHT22;17779;50.942;4.026;2022-09-19T06:10:22;12.60;99.90
31133;DHT22;17779;50.942;4.026;2022-09-19T06:12:48;12.60;99.90
31133;DHT22;17779;50.942;4.026;2022-09-19T06:17:43;12.80;99.90
31133;DHT22;17779;50.942;4.026;2022-09-19T06:20:10;12.80;99.90
31133;DHT22;17779;50.942;4.026;2022-09-19T06:22:37;12.90;99.90
31133;DHT22;17779;50.942;4.026;2022-09-19T06:25:02;12.90;99.90
31133;DHT22;17779;50.942;4.026;2022-09-19T06:27:28;13.00;99.90
31133;DHT22;17779;50.942;4.026;2022-09-19T06:32:23;13.10;99.90
31133;DHT22;17779;50.942;4.026;2022-09-19T06:37:20;13.30;99.90
31133;DHT22;17779;50.942;4.026;2022-09-19T06:39:47;13.20;99.90
31133;DHT22;17779;50.942;4.026;2022-09-19T06:42:13;13.10;99.90
31133;DHT22;17779;50.942;4.026;2022-09-19T06:44:38;13.20;99.90
31133;DHT22;17779;50.942;4.026;2022-09-19T06:47:04;13.10;99.90
31133;DHT22;17779;50.942;4.026;2022-09-19T06:49:31;13.00;99.90
31133;DHT22;17779;50.942;4.026;2022-09-19T06:51:58;13.10;99.90
31133;DHT22;17779;50.942;4.026;2022-09-19T06:54:27;13.10;99.90
31133;DHT22;17779;50.942;4.026;2022-09-19T06:56:55;13.30;99.90
31133;DHT22;17779;50.942;4.026;2022-09-19T06:59:21;13.30;99.90
31133;DHT22;17779;50.942;4.026;2022-09-19T07:01:50;13.50;99.90
31133;DHT22;17779;50.942;4.026;2022-09-19T07:04:18;13.60;99.90
31133;DHT22;17779;50.942;4.026;2022-09-19T07:06:47;13.60;99.90
31133;DHT22;17779;50.942;4.026;2022-09-19T07:09:13;13.60;99.90
31133;DHT22;17779;50.942;4.026;2022-09-19T07:11:39;13.60;99.90
31133;DHT22;17779;50.942;4.026;2022-09-19T07:14:05;13.80;99.90
31133;DHT22;17779;50.942;4.026;2022-09-19T07:16:31;14.00;99.90
31133;DHT22;17779;50.942;4.026;2022-09-19T07:18:57;14.20;99.90
31133;DHT22;17779;50.942;4.026;2022-09-19T07:21:23;14.50;99.90
31133;DHT22;17779;50.942;4.026;2022-09-19T07:23:48;14.90;99.90
31133;DHT22;17779;50.942;4.026;2022-09-19T07:26:14;15.80;99.90
31133;DHT22;17779;50.942;4.026;2022-09-19T07:28:40;17.40;99.90
31133;DHT22;17779;50.942;4.026;2022-09-19T07:31:05;19.00;99.90
31133;DHT22;17779;50.942;4.026;2022-09-19T07:33:32;18.60;99.90
31133;DHT22;17779;50.942;4.026;2022-09-19T07:35:58;17.70;99.90
31133;DHT22;17779;50.942;4.026;2022-09-19T07:38:24;16.70;99.90
31133;DHT22;17779;50.942;4.026;2022-09-19T07:40:52;16.40;99.90
31133;DHT22;17779;50.942;4.026;2022-09-19T07:43:18;16.30;99.90
31133;DHT22;17779;50.942;4.026;2022-09-19T07:45:48;16.30;99.90
31133;DHT22;17779;50.942;4.026;2022-09-19T07:48:14;16.20;99.90
31133;DHT22;17779;50.942;4.026;2022-09-19T07:50:39;16.00;99.90
31133;DHT22;17779;50.942;4.026;2022-09-19T07:55:31;15.80;99.90
31133;DHT22;17779;50.942;4.026;2022-09-19T07:57:58;15.70;99.90
31133;DHT22;17779;50.942;4.026;2022-09-19T08:00:27;15.40;99.90
31133;DHT22;17779;50.942;4.026;2022-09-19T08:02:56;15.70;99.90
31133;DHT22;17779;50.942;4.026;2022-09-19T08:05:22;15.80;99.90
31133;DHT22;17779;50.942;4.026;2022-09-19T08:07:48;15.50;99.90
31133;DHT22;17779;50.942;4.026;2022-09-19T08:10:14;15.90;99.90
31133;DHT22;17779;50.942;4.026;2022-09-19T08:12:41;16.10;99.90
31133;DHT22;17779;50.942;4.026;2022-09-19T08:15:10;16.20;99.90
31133;DHT22;17779;50.942;4.026;2022-09-19T08:17:46;16.20;99.90
31133;DHT22;17779;50.942;4.026;2022-09-19T08:20:18;16.40;99.90
31133;DHT22;17779;50.942;4.026;2022-09-19T08:22:45;16.60;99.90
31133;DHT22;17779;50.942;4.026;2022-09-19T08:25:11;16.90;99.90
31133;DHT22;17779;50.942;4.026;2022-09-19T08:27:36;17.00;99.90
31133;DHT22;17779;50.942;4.026;2022-09-19T08:30:04;17.10;99.90
31133;DHT22;17779;50.942;4.026;2022-09-19T08:32:30;17.10;99.90
31133;DHT22;17779;50.942;4.026;2022-09-19T08:34:56;17.10;99.90
31133;DHT22;17779;50.942;4.026;2022-09-19T08:37:23;17.00;99.90
31133;DHT22;17779;50.942;4.026;2022-09-19T08:39:50;16.60;99.90
31133;DHT22;17779;50.942;4.026;2022-09-19T08:42:37;16.60;99.90
31133;DHT22;17779;50.942;4.026;2022-09-19T08:45:13;17.00;99.90
31133;DHT22;17779;50.942;4.026;2022-09-19T08:47:42;17.20;99.90
31133;DHT22;17779;50.942;4.026;2022-09-19T08:50:14;17.40;99.90
31133;DHT22;17779;50.942;4.026;2022-09-19T08:52:42;18.00;99.90
31133;DHT22;17779;50.942;4.026;2022-09-19T08:55:13;18.40;99.90
31133;DHT22;17779;50.942;4.026;2022-09-19T08:57:45;18.40;99.90
31133;DHT22;17779;50.942;4.026;2022-09-19T09:00:16;18.60;99.90
31133;DHT22;17779;50.942;4.026;2022-09-19T09:02:52;18.90;99.90
31133;DHT22;17779;50.942;4.026;2022-09-19T09:13:14;23.10;99.90
31133;DHT22;17779;50.942;4.026;2022-09-19T09:23:35;24.10;99.90
31133;DHT22;17779;50.942;4.026;2022-09-19T09:26:03;22.20;99.90
31133;DHT22;17779;50.942;4.026;2022-09-19T09:31:15;21.50;99.90
31133;DHT22;17779;50.942;4.026;2022-09-19T09:33:47;21.20;99.90
31133;DHT22;17779;50.942;4.026;2022-09-19T09:36:15;22.60;99.90
31133;DHT22;17779;50.942;4.026;2022-09-19T09:38:44;23.90;99.90
31133;DHT22;17779;50.942;4.026;2022-09-19T09:46:45;21.70;99.90
31133;DHT22;17779;50.942;4.026;2022-09-19T09:49:14;22.80;99.90
31133;DHT22;17779;50.942;4.026;2022-09-19T09:57:17;22.50;99.90
31133;DHT22;17779;50.942;4.026;2022-09-19T09:59:47;22.70;99.90
31133;DHT22;17779;50.942;4.026;2022-09-19T10:05:30;25.10;99.90
31133;DHT22;17779;50.942;4.026;2022-09-19T10:10:30;23.20;99.90
31133;DHT22;17779;50.942;4.026;2022-09-19T10:15:36;19.90;99.90
31133;DHT22;17779;50.942;4.026;2022-09-19T10:18:08;18.50;99.90
31133;DHT22;17779;50.942;4.026;2022-09-19T10:20:45;18.00;99.90
31133;DHT22;17779;50.942;4.026;2022-09-19T10:23:22;17.80;99.90
31133;DHT22;17779;50.942;4.026;2022-09-19T10:26:01;17.90;99.90
31133;DHT22;17779;50.942;4.026;2022-09-19T10:31:01;18.20;99.90
31133;DHT22;17779;50.942;4.026;2022-09-19T10:33:32;18.10;99.90
31133;DHT22;17779;50.942;4.026;2022-09-19T10:36:04;18.00;99.90
31133;DHT22;17779;50.942;4.026;2022-09-19T10:38:38;18.30;99.90
31133;DHT22;17779;50.942;4.026;2022-09-19T10:41:11;18.90;99.90
31133;DHT22;17779;50.942;4.026;2022-09-19T10:43:44;19.00;99.90
31133;DHT22;17779;50.942;4.026;2022-09-19T10:46:15;19.10;99.90
31133;DHT22;17779;50.942;4.026;2022-09-19T10:48:41;19.60;99.90
31133;DHT22;17779;50.942;4.026;2022-09-19T10:51:15;19.90;99.90
31133;DHT22;17779;50.942;4.026;2022-09-19T10:53:45;20.60;99.90
31133;DHT22;17779;50.942;4.026;2022-09-19T10:56:19;20.30;99.90
31133;DHT22;17779;50.942;4.026;2022-09-19T10:58:48;20.20;99.90
31133;DHT22;17779;50.942;4.026;2022-09-19T11:01:20;20.60;99.90
31133;DHT22;17779;50.942;4.026;2022-09-19T11:03:59;20.40;99.90
31133;DHT22;17779;50.942;4.026;2022-09-19T11:06:25;19.90;99.90
31133;DHT22;17779;50.942;4.026;2022-09-19T11:08:51;20.10;99.90
31133;DHT22;17779;50.942;4.026;2022-09-19T11:13:49;21.50;99.90
31133;DHT22;17779;50.942;4.026;2022-09-19T11:16:32;21.70;99.90
31133;DHT22;17779;50.942;4.026;2022-09-19T11:19:46;21.50;99.90
31133;DHT22;17779;50.942;4.026;2022-09-19T11:22:12;22.20;99.90
31133;DHT22;17779;50.942;4.026;2022-09-19T11:27:49;22.10;99.90
31133;DHT22;17779;50.942;4.026;2022-09-19T11:30:19;21.40;99.90
31133;DHT22;17779;50.942;4.026;2022-09-19T11:33:01;21.60;99.90
31133;DHT22;17779;50.942;4.026;2022-09-19T11:41:12;19.80;99.90
31133;DHT22;17779;50.942;4.026;2022-09-19T11:49:09;19.60;99.90
31133;DHT22;17779;50.942;4.026;2022-09-19T12:12:25;19.30;99.90
31133;DHT22;17779;50.942;4.026;2022-09-19T12:14:53;19.50;99.90
31133;DHT22;17779;50.942;4.026;2022-09-19T12:17:25;19.30;99.90
31133;DHT22;17779;50.942;4.026;2022-09-19T12:19:58;19.30;99.90
31133;DHT22;17779;50.942;4.026;2022-09-19T12:22:28;19.30;99.90
31133;DHT22;17779;50.942;4.026;2022-09-19T12:25:12;19.20;99.90
31133;DHT22;17779;50.942;4.026;2022-09-19T12:30:15;20.20;99.90
31133;DHT22;17779;50.942;4.026;2022-09-19T12:32:49;20.60;99.90
31133;DHT22;17779;50.942;4.026;2022-09-19T12:45:52;21.80;99.90
31133;DHT22;17779;50.942;4.026;2022-09-19T12:48:37;20.90;99.90
31133;DHT22;17779;50.942;4.026;2022-09-19T12:51:04;20.70;99.90
31133;DHT22;17779;50.942;4.026;2022-09-19T12:53:37;20.20;99.90
31133;DHT22;17779;50.942;4.026;2022-09-19T13:01:09;21.10;99.90
31133;DHT22;17779;50.942;4.026;2022-09-19T13:03:38;21.60;99.90
31133;DHT22;17779;50.942;4.026;2022-09-19T13:06:09;21.30;99.90
31133;DHT22;17779;50.942;4.026;2022-09-19T13:08:39;22.30;99.90
31133;DHT22;17779;50.942;4.026;2022-09-19T13:11:40;22.20;99.90
31133;DHT22;17779;50.942;4.026;2022-09-19T13:16:35;23.10;99.90
31133;DHT22;17779;50.942;4.026;2022-09-19T13:19:24;21.90;99.90
31133;DHT22;17779;50.942;4.026;2022-09-19T13:22:09;22.30;99.90
31133;DHT22;17779;50.942;4.026;2022-09-19T13:24:55;22.20;99.90
31133;DHT22;17779;50.942;4.026;2022-09-19T13:27:25;21.60;99.90
31133;DHT22;17779;50.942;4.026;2022-09-19T13:29:51;21.30;99.90
31133;DHT22;17779;50.942;4.026;2022-09-19T13:45:06;18.90;99.90
31133;DHT22;17779;50.942;4.026;2022-09-19T13:47:39;18.60;99.90
31133;DHT22;17779;50.942;4.026;2022-09-19T13:50:20;18.60;99.90
31133;DHT22;17779;50.942;4.026;2022-09-19T13:52:50;18.40;99.90
31133;DHT22;17779;50.942;4.026;2022-09-19T14:00:42;18.40;99.90
31133;DHT22;17779;50.942;4.026;2022-09-19T14:03:25;18.50;99.90
31133;DHT22;17779;50.942;4.026;2022-09-19T14:06:12;18.50;99.90
31133;DHT22;17779;50.942;4.026;2022-09-19T14:08:38;18.70;99.90
31133;DHT22;17779;50.942;4.026;2022-09-19T14:11:03;18.80;99.90
31133;DHT22;17779;50.942;4.026;2022-09-19T14:13:32;18.60;99.90
31133;DHT22;17779;50.942;4.026;2022-09-19T14:21:11;18.70;99.90
31133;DHT22;17779;50.942;4.026;2022-09-19T14:23:48;18.60;99.90
31133;DHT22;17779;50.942;4.026;2022-09-19T14:28:54;18.70;99.90
31133;DHT22;17779;50.942;4.026;2022-09-19T14:47:33;18.00;99.90
31133;DHT22;17779;50.942;4.026;2022-09-19T14:52:52;17.90;99.90
31133;DHT22;17779;50.942;4.026;2022-09-19T14:55:29;17.90;99.90
31133;DHT22;17779;50.942;4.026;2022-09-19T14:57:54;17.80;99.90
31133;DHT22;17779;50.942;4.026;2022-09-19T15:00:25;17.80;99.90
31133;DHT22;17779;50.942;4.026;2022-09-19T15:02:53;18.00;99.90
31133;DHT22;17779;50.942;4.026;2022-09-19T15:05:20;17.90;99.90
31133;DHT22;17779;50.942;4.026;2022-09-19T15:07:48;17.90;99.90
31133;DHT22;17779;50.942;4.026;2022-09-19T15:13:11;17.90;99.90
31133;DHT22;17779;50.942;4.026;2022-09-19T15:15:38;17.80;99.90
31133;DHT22;17779;50.942;4.026;2022-09-19T15:20:52;17.90;99.90
31133;DHT22;17779;50.942;4.026;2022-09-19T15:23:20;17.90;99.90
31133;DHT22;17779;50.942;4.026;2022-09-19T15:25:47;17.90;99.90
31133;DHT22;17779;50.942;4.026;2022-09-19T15:30:51;17.50;99.90
31133;DHT22;17779;50.942;4.026;2022-09-19T15:33:20;17.60;99.90
31133;DHT22;17779;50.942;4.026;2022-09-19T15:35:46;17.50;99.90
31133;DHT22;17779;50.942;4.026;2022-09-19T15:38:15;17.50;99.90
31133;DHT22;17779;50.942;4.026;2022-09-19T15:40:44;17.40;99.90
31133;DHT22;17779;50.942;4.026;2022-09-19T15:43:11;17.30;99.90
31133;DHT22;17779;50.942;4.026;2022-09-19T15:48:13;17.30;99.90
31133;DHT22;17779;50.942;4.026;2022-09-19T15:50:41;17.20;99.90
31133;DHT22;17779;50.942;4.026;2022-09-19T15:53:15;17.30;99.90
31133;DHT22;17779;50.942;4.026;2022-09-19T15:55:43;17.20;99.90
31133;DHT22;17779;50.942;4.026;2022-09-19T15:58:15;17.20;99.90
31133;DHT22;17779;50.942;4.026;2022-09-19T16:00:45;17.30;99.90
31133;DHT22;17779;50.942;4.026;2022-09-19T16:03:14;17.20;99.90
31133;DHT22;17779;50.942;4.026;2022-09-19T16:05:43;17.10;99.90
31133;DHT22;17779;50.942;4.026;2022-09-19T16:08:28;17.20;99.90
31133;DHT22;17779;50.942;4.026;2022-09-19T16:16:52;17.70;99.90
31133;DHT22;17779;50.942;4.026;2022-09-19T16:19:20;17.80;99.90
31133;DHT22;17779;50.942;4.026;2022-09-19T16:21:46;17.80;99.90
31133;DHT22;17779;50.942;4.026;2022-09-19T16:24:16;17.80;99.90
31133;DHT22;17779;50.942;4.026;2022-09-19T16:26:42;17.60;99.90
31133;DHT22;17779;50.942;4.026;2022-09-19T16:29:09;17.60;99.90
31133;DHT22;17779;50.942;4.026;2022-09-19T16:31:39;17.50;99.90
31133;DHT22;17779;50.942;4.026;2022-09-19T16:34:06;17.30;99.90
31133;DHT22;17779;50.942;4.026;2022-09-19T16:36:39;17.20;99.90
31133;DHT22;17779;50.942;4.026;2022-09-19T16:41:41;17.00;99.90
31133;DHT22;17779;50.942;4.026;2022-09-19T16:46:41;16.90;99.90
31133;DHT22;17779;50.942;4.026;2022-09-19T16:49:07;16.90;99.90
31133;DHT22;17779;50.942;4.026;2022-09-19T16:51:32;16.90;99.90
31133;DHT22;17779;50.942;4.026;2022-09-19T16:53:58;16.80;99.90
31133;DHT22;17779;50.942;4.026;2022-09-19T16:56:27;16.90;99.90
31133;DHT22;17779;50.942;4.026;2022-09-19T16:58:53;16.90;99.90
31133;DHT22;17779;50.942;4.026;2022-09-19T17:01:19;16.90;99.90
31133;DHT22;17779;50.942;4.026;2022-09-19T17:03:45;16.90;99.90
31133;DHT22;17779;50.942;4.026;2022-09-19T17:06:11;16.90;99.90
31133;DHT22;17779;50.942;4.026;2022-09-19T17:08:38;16.80;99.90
31133;DHT22;17779;50.942;4.026;2022-09-19T17:11:04;16.60;99.90
31133;DHT22;17779;50.942;4.026;2022-09-19T17:13:29;16.60;99.90
31133;DHT22;17779;50.942;4.026;2022-09-19T17:15:59;16.60;99.90
31133;DHT22;17779;50.942;4.026;2022-09-19T17:18:27;16.60;99.90
31133;DHT22;17779;50.942;4.026;2022-09-19T17:20:53;16.50;99.90
31133;DHT22;17779;50.942;4.026;2022-09-19T17:23:19;16.50;99.90
31133;DHT22;17779;50.942;4.026;2022-09-19T17:25:54;16.60;99.90
31133;DHT22;17779;50.942;4.026;2022-09-19T17:28:21;16.50;99.90
31133;DHT22;17779;50.942;4.026;2022-09-19T17:30:48;16.40;99.90
31133;DHT22;17779;50.942;4.026;2022-09-19T17:33:16;16.40;99.90
31133;DHT22;17779;50.942;4.026;2022-09-19T17:35:42;16.30;99.90
31133;DHT22;17779;50.942;4.026;2022-09-19T17:38:08;16.30;99.90
31133;DHT22;17779;50.942;4.026;2022-09-19T17:40:38;16.30;99.90
31133;DHT22;17779;50.942;4.026;2022-09-19T17:43:05;16.30;99.90
31133;DHT22;17779;50.942;4.026;2022-09-19T17:45:31;16.20;99.90
31133;DHT22;17779;50.942;4.026;2022-09-19T17:48:01;16.10;99.90
31133;DHT22;17779;50.942;4.026;2022-09-19T17:50:28;16.10;99.90
31133;DHT22;17779;50.942;4.026;2022-09-19T17:52:56;16.20;99.90
31133;DHT22;17779;50.942;4.026;2022-09-19T17:55:22;16.00;99.90
31133;DHT22;17779;50.942;4.026;2022-09-19T17:57:49;16.00;99.90
31133;DHT22;17779;50.942;4.026;2022-09-19T18:00:15;15.90;99.90
31133;DHT22;17779;50.942;4.026;2022-09-19T18:02:42;15.80;99.90
31133;DHT22;17779;50.942;4.026;2022-09-19T18:05:27;15.80;99.90
31133;DHT22;17779;50.942;4.026;2022-09-19T18:07:53;15.80;99.90
31133;DHT22;17779;50.942;4.026;2022-09-19T18:10:25;15.80;99.90
31133;DHT22;17779;50.942;4.026;2022-09-19T18:12:52;15.70;99.90
31133;DHT22;17779;50.942;4.026;2022-09-19T18:15:20;15.60;99.90
31133;DHT22;17779;50.942;4.026;2022-09-19T18:17:45;15.40;99.90
31133;DHT22;17779;50.942;4.026;2022-09-19T18:20:15;15.30;99.90
31133;DHT22;17779;50.942;4.026;2022-09-19T18:22:41;15.30;99.90
31133;DHT22;17779;50.942;4.026;2022-09-19T18:25:08;15.20;99.90
31133;DHT22;17779;50.942;4.026;2022-09-19T18:27:34;15.10;99.90
31133;DHT22;17779;50.942;4.026;2022-09-19T18:30:00;15.10;99.90
31133;DHT22;17779;50.942;4.026;2022-09-19T18:32:26;15.00;99.90
31133;DHT22;17779;50.942;4.026;2022-09-19T18:34:52;15.00;99.90
31133;DHT22;17779;50.942;4.026;2022-09-19T18:37:18;14.90;99.90
31133;DHT22;17779;50.942;4.026;2022-09-19T18:39:43;14.70;99.90
31133;DHT22;17779;50.942;4.026;2022-09-19T18:42:09;14.70;99.90
31133;DHT22;17779;50.942;4.026;2022-09-19T18:44:35;14.60;99.90
31133;DHT22;17779;50.942;4.026;2022-09-19T18:47:01;14.70;99.90
31133;DHT22;17779;50.942;4.026;2022-09-19T18:49:26;14.60;99.90
31133;DHT22;17779;50.942;4.026;2022-09-19T18:51:52;14.60;99.90
31133;DHT22;17779;50.942;4.026;2022-09-19T18:54:18;14.50;99.90
31133;DHT22;17779;50.942;4.026;2022-09-19T18:56:44;14.50;99.90
31133;DHT22;17779;50.942;4.026;2022-09-19T18:59:10;14.50;99.90
31133;DHT22;17779;50.942;4.026;2022-09-19T19:01:35;14.50;99.90
31133;DHT22;17779;50.942;4.026;2022-09-19T19:04:02;14.50;99.90
31133;DHT22;17779;50.942;4.026;2022-09-19T19:06:28;14.50;99.90
31133;DHT22;17779;50.942;4.026;2022-09-19T19:08:54;14.50;99.90
31133;DHT22;17779;50.942;4.026;2022-09-19T19:11:21;14.40;99.90